Laredo, Missouri
Current Conditions -  °F | °C
As of 3:55 AM on Friday 28 Nov 2014 (Local Time) from KIRK Reporting Station
Scattered Clouds Scattered Clouds  
Wind Chill:   Ceiling: Unl
Heat Index: 21°   Visibility: 10mi
Dew Point: 18°   Wind: 12mph
Humidity: 88%   Direction: 140°SE
Pressure: 30.19"   Gusts: NA
Location:  40.03°N, 93.45°W
Report Text: KIRK 280955Z AUTO 14010KT 10SM SCT120 M06/M08 A3019 RMK AO2 SLP240 T10611078
Loading
Personal Weather Stations






























Interactive Weather Map New forecast layout! Learn more

10-Day Weather Forecast

Advertisements
Track Severe Weather on mobile